createdAt,value
2022-08-10T00:01:04.561Z,67.20
2022-08-10T00:03:31.296Z,68.50
2022-08-10T00:05:58.132Z,67.60
2022-08-10T00:08:25.138Z,67.80
2022-08-10T00:10:56.811Z,68.40
2022-08-10T00:13:25.520Z,69.30
2022-08-10T00:15:54.940Z,68.80
2022-08-10T00:18:34.847Z,70.00
2022-08-10T00:21:06.441Z,70.80
2022-08-10T00:23:33.822Z,72.00
2022-08-10T00:26:01.261Z,71.50
2022-08-10T00:28:27.957Z,71.60
2022-08-10T00:30:54.787Z,72.80
2022-08-10T00:33:22.059Z,72.80
2022-08-10T00:35:48.771Z,73.60
2022-08-10T00:38:15.543Z,73.70
2022-08-10T00:40:42.481Z,73.60
2022-08-10T00:43:09.290Z,74.60
2022-08-10T00:45:36.527Z,75.20
2022-08-10T00:48:04.065Z,75.20
2022-08-10T00:50:30.974Z,76.20
2022-08-10T00:52:58.068Z,76.90
2022-08-10T00:55:24.921Z,77.70
2022-08-10T00:57:55.262Z,78.40
2022-08-10T01:00:23.087Z,79.60
2022-08-10T01:02:49.743Z,80.10
2022-08-10T01:05:16.792Z,82.10
2022-08-10T01:07:59.540Z,82.40
2022-08-10T01:10:37.785Z,82.70
2022-08-10T01:13:11.323Z,82.90
2022-08-10T01:16:14.678Z,84.00
2022-08-10T01:18:53.143Z,84.90
2022-08-10T01:21:54.047Z,86.00
2022-08-10T01:24:25.159Z,87.80
2022-08-10T01:27:46.416Z,89.50
2022-08-10T01:30:14.858Z,88.50
2022-08-10T01:32:45.533Z,89.30
2022-08-10T01:35:18.196Z,90.00
2022-08-10T01:37:52.562Z,89.10
2022-08-10T01:40:25.016Z,90.10
2022-08-10T01:42:54.495Z,90.00
2022-08-10T01:45:24.029Z,90.70
2022-08-10T01:48:16.698Z,90.60
2022-08-10T01:50:58.976Z,91.50
2022-08-10T01:53:39.987Z,91.70
2022-08-10T01:56:10.724Z,91.50
2022-08-10T01:58:39.430Z,92.30
2022-08-10T02:01:09.922Z,91.50
2022-08-10T02:04:04.636Z,92.10
2022-08-10T02:06:28.801Z,92.90
2022-08-10T02:09:05.758Z,92.90
2022-08-10T02:11:55.752Z,93.80
2022-08-10T02:14:23.473Z,93.80
2022-08-10T02:16:51.938Z,94.60
2022-08-10T02:19:23.462Z,95.30
2022-08-10T02:22:36.190Z,96.30
2022-08-10T02:24:42.720Z,95.40
2022-08-10T02:27:10.361Z,95.30
2022-08-10T02:29:37.942Z,95.10
2022-08-10T02:32:11.269Z,95.60
2022-08-10T02:34:40.997Z,97.10
2022-08-10T02:37:10.614Z,96.70
2022-08-10T02:39:38.163Z,98.00
2022-08-10T02:45:27.814Z,99.10
2022-08-10T02:45:38.778Z,97.80
2022-08-10T02:48:13.824Z,97.10
2022-08-10T02:50:42.681Z,96.90
2022-08-10T02:53:55.791Z,96.40
2022-08-10T02:56:20.015Z,96.70
2022-08-10T02:58:54.562Z,96.60
2022-08-10T03:01:25.757Z,97.40
2022-08-10T03:03:59.036Z,97.20
2022-08-10T03:06:32.609Z,97.40
2022-08-10T03:09:01.637Z,97.80
2022-08-10T03:12:37.601Z,98.10
2022-08-10T03:14:20.017Z,97.60
2022-08-10T03:16:47.545Z,98.00
2022-08-10T03:20:33.399Z,98.90
2022-08-10T03:22:04.896Z,99.10
2022-08-10T03:24:33.703Z,99.30
2022-08-10T03:27:01.751Z,99.30
2022-08-10T03:29:29.121Z,98.80
2022-08-10T03:31:58.130Z,99.40
2022-08-10T03:34:33.309Z,99.20
2022-08-10T03:37:00.875Z,99.10
2022-08-10T03:39:28.489Z,99.60
2022-08-10T03:41:59.957Z,99.90
2022-08-10T03:44:31.652Z,99.90
2022-08-10T03:47:02.187Z,99.90
2022-08-10T03:49:31.023Z,99.90
2022-08-10T03:51:59.024Z,99.90
2022-08-10T03:54:26.043Z,99.90
2022-08-10T03:56:52.767Z,99.90
2022-08-10T03:59:20.177Z,99.90
2022-08-10T04:02:44.992Z,99.90
2022-08-10T04:04:34.672Z,99.90
2022-08-10T04:07:02.472Z,99.90
2022-08-10T04:09:54.637Z,99.90
2022-08-10T04:12:18.196Z,99.90
2022-08-10T04:14:49.317Z,99.90
2022-08-10T04:18:01.125Z,99.90
2022-08-10T04:20:25.303Z,99.90
2022-08-10T04:22:54.762Z,99.90
2022-08-10T04:25:23.877Z,99.90
2022-08-10T04:27:52.191Z,99.90
2022-08-10T04:30:18.897Z,99.90
2022-08-10T04:32:50.891Z,99.90
2022-08-10T04:35:19.713Z,99.90
2022-08-10T04:37:49.363Z,99.90
2022-08-10T04:40:28.587Z,99.90
2022-08-10T04:43:07.279Z,99.90
2022-08-10T04:45:48.866Z,99.90
2022-08-10T04:48:40.360Z,99.90
2022-08-10T04:51:06.859Z,99.90
2022-08-10T04:53:34.178Z,99.90
2022-08-10T04:56:20.902Z,99.90
2022-08-10T04:58:58.525Z,99.90
2022-08-10T05:01:25.282Z,99.90
2022-08-10T05:04:33.793Z,99.90
2022-08-10T05:06:38.705Z,99.90
2022-08-10T05:09:05.491Z,99.90
2022-08-10T05:11:32.243Z,99.90
2022-08-10T05:13:58.957Z,99.90
2022-08-10T05:16:32.591Z,99.90
2022-08-10T05:19:00.443Z,99.90
2022-08-10T05:21:53.811Z,99.90
2022-08-10T05:24:13.840Z,99.90
2022-08-10T05:27:00.172Z,99.90
2022-08-10T05:29:27.054Z,99.90
2022-08-10T05:31:54.414Z,99.90
2022-08-10T05:34:26.464Z,99.90
2022-08-10T05:36:57.748Z,99.90
2022-08-10T05:39:30.124Z,99.90
2022-08-10T05:42:01.151Z,99.90
2022-08-10T05:44:29.072Z,99.90
2022-08-10T05:46:56.012Z,99.90
2022-08-10T05:49:22.759Z,99.90
2022-08-10T05:51:49.776Z,99.90
2022-08-10T05:54:16.537Z,99.90
2022-08-10T05:56:56.456Z,99.90
2022-08-10T06:00:31.106Z,99.90
2022-08-10T06:02:35.755Z,99.90
2022-08-10T06:05:10.213Z,99.90
2022-08-10T06:08:01.312Z,99.90
2022-08-10T06:10:35.668Z,98.80
2022-08-10T06:13:30.174Z,98.00
2022-08-10T06:16:00.324Z,97.90
2022-08-10T06:18:27.177Z,97.40
2022-08-10T06:20:54.939Z,97.00
2022-08-10T06:23:23.090Z,96.80
2022-08-10T06:26:11.038Z,96.60
2022-08-10T06:28:40.708Z,96.00
2022-08-10T06:31:09.395Z,95.10
2022-08-10T06:33:40.344Z,94.40
2022-08-10T06:36:08.729Z,94.00
2022-08-10T06:38:37.954Z,94.10
2022-08-10T06:41:10.328Z,93.40
2022-08-10T06:43:41.503Z,93.40
2022-08-10T06:46:12.809Z,93.10
2022-08-10T06:48:50.647Z,92.80
2022-08-10T06:51:22.596Z,93.40
2022-08-10T06:53:54.538Z,92.10
2022-08-10T06:56:37.757Z,91.80
2022-08-10T06:59:29.453Z,91.60
2022-08-10T07:02:04.515Z,91.30
2022-08-10T07:04:44.058Z,91.00
2022-08-10T07:07:15.888Z,90.60
2022-08-10T07:09:45.067Z,90.60
2022-08-10T07:12:13.945Z,90.50
2022-08-10T07:14:44.271Z,88.90
2022-08-10T07:17:15.691Z,89.50
2022-08-10T07:19:49.524Z,88.30
2022-08-10T07:23:50.752Z,88.60
2022-08-10T07:25:08.389Z,88.00
2022-08-10T07:27:59.095Z,87.30
2022-08-10T07:30:28.211Z,86.90
2022-08-10T07:32:56.042Z,86.40
2022-08-10T07:35:23.978Z,85.00
2022-08-10T07:37:52.582Z,84.20
2022-08-10T07:40:21.328Z,84.10
2022-08-10T07:42:52.223Z,82.70
2022-08-10T07:45:19.187Z,83.40
2022-08-10T07:47:53.648Z,83.60
2022-08-10T07:50:24.774Z,82.40
2022-08-10T07:52:54.343Z,83.00
2022-08-10T07:56:01.869Z,82.10
2022-08-10T07:58:10.362Z,82.50
2022-08-10T08:00:39.102Z,81.40
2022-08-10T08:03:07.467Z,80.90
2022-08-10T08:05:58.935Z,80.60
2022-08-10T08:08:22.497Z,80.60
2022-08-10T08:10:50.562Z,79.90
2022-08-10T08:13:20.378Z,78.50
2022-08-10T08:16:17.796Z,77.30
2022-08-10T08:18:37.081Z,78.40
2022-08-10T08:24:02.631Z,76.80
2022-08-10T08:24:10.889Z,75.80
2022-08-10T08:26:41.189Z,76.30
2022-08-10T08:29:10.851Z,75.90
2022-08-10T08:32:01.134Z,76.20
2022-08-10T08:34:25.367Z,76.10
2022-08-10T08:36:59.215Z,75.20
2022-08-10T08:39:26.872Z,75.50
2022-08-10T08:42:04.077Z,74.50
2022-08-10T08:44:50.144Z,74.00
2022-08-10T08:48:03.680Z,74.50
2022-08-10T08:50:31.377Z,73.10
2022-08-10T08:53:21.494Z,70.40
2022-08-10T08:56:07.117Z,70.20
2022-08-10T08:59:06.341Z,70.20
2022-08-10T09:01:49.976Z,68.60
2022-08-10T09:04:37.900Z,69.00
2022-08-10T09:07:39.300Z,68.30
2022-08-10T09:10:36.750Z,68.30
2022-08-10T09:13:14.789Z,66.20
2022-08-10T09:16:00.418Z,65.80
2022-08-10T09:18:46.305Z,64.50
2022-08-10T09:21:23.733Z,65.50
2022-08-10T09:24:18.616Z,63.10
2022-08-10T09:26:50.955Z,62.60
2022-08-10T09:29:33.129Z,62.90
2022-08-10T09:36:17.573Z,62.40
2022-08-10T09:36:28.042Z,62.70
2022-08-10T09:38:03.420Z,62.20
2022-08-10T09:41:01.267Z,60.50
2022-08-10T09:43:52.065Z,61.20
2022-08-10T09:46:54.772Z,59.70
2022-08-10T09:49:54.540Z,61.20
2022-08-10T09:52:48.299Z,59.00
2022-08-10T09:56:18.281Z,57.70
2022-08-10T09:58:40.137Z,57.80
2022-08-10T10:02:00.367Z,57.50
2022-08-10T10:04:39.967Z,55.90
2022-08-10T10:07:10.305Z,53.60
2022-08-10T10:09:39.801Z,52.40
2022-08-10T10:12:14.858Z,51.40
2022-08-10T10:15:24.139Z,52.10
2022-08-10T10:18:14.727Z,51.40
2022-08-10T10:21:04.433Z,51.70
2022-08-10T10:23:55.295Z,49.00
2022-08-10T10:26:51.702Z,49.40
2022-08-10T10:29:58.786Z,48.40
2022-08-10T10:32:31.990Z,48.70
2022-08-10T10:35:34.748Z,49.30
2022-08-10T10:38:04.260Z,48.00
2022-08-10T10:41:09.574Z,48.50
2022-08-10T10:43:52.510Z,49.70
2022-08-10T10:46:57.422Z,49.30
2022-08-10T10:49:35.692Z,49.70
2022-08-10T10:52:14.528Z,50.00
2022-08-10T10:54:55.885Z,49.20
2022-08-10T10:57:59.458Z,49.60
2022-08-10T11:00:42.029Z,49.80
2022-08-10T11:03:33.749Z,49.10
2022-08-10T11:06:34.201Z,47.80
2022-08-10T11:09:10.399Z,47.20
2022-08-10T11:12:04.947Z,46.80
2022-08-10T11:14:39.314Z,48.00
2022-08-10T11:17:15.525Z,47.30
2022-08-10T11:20:09.641Z,45.90
2022-08-10T11:23:02.609Z,46.10
2022-08-10T11:25:37.585Z,46.30
2022-08-10T11:28:10.280Z,46.20
2022-08-10T11:30:57.216Z,47.00
2022-08-10T11:33:57.110Z,46.70
2022-08-10T11:36:58.645Z,46.00
2022-08-10T11:39:51.131Z,45.50
2022-08-10T11:42:31.463Z,44.60
2022-08-10T11:45:17.233Z,44.50
2022-08-10T11:48:09.092Z,45.30
2022-08-10T11:50:44.332Z,45.30
2022-08-10T11:53:18.019Z,43.70
2022-08-10T11:55:57.640Z,43.60
2022-08-10T11:58:49.942Z,43.70
2022-08-10T12:01:21.598Z,43.20
2022-08-10T12:03:49.143Z,42.40
2022-08-10T12:06:39.183Z,42.50
2022-08-10T12:10:09.686Z,42.90
2022-08-10T12:11:55.326Z,42.00
2022-08-10T12:14:32.256Z,40.70
2022-08-10T12:17:33.986Z,41.00
2022-08-10T12:20:24.076Z,41.10
2022-08-10T12:22:56.943Z,40.40
2022-08-10T12:25:59.154Z,41.20
2022-08-10T12:28:50.937Z,40.70
2022-08-10T12:31:30.828Z,39.50
2022-08-10T12:34:09.848Z,39.80
2022-08-10T12:36:41.772Z,39.60
2022-08-10T12:39:27.735Z,39.90
2022-08-10T12:42:06.272Z,39.20
2022-08-10T12:44:42.913Z,39.30
2022-08-10T12:47:51.118Z,39.30
2022-08-10T12:50:33.683Z,38.90
2022-08-10T12:53:11.372Z,40.20
2022-08-10T12:55:40.261Z,39.20
2022-08-10T12:58:59.010Z,39.20
2022-08-10T13:01:15.644Z,38.80
2022-08-10T13:04:21.885Z,37.50
2022-08-10T13:06:33.908Z,37.60
2022-08-10T13:09:09.487Z,37.10
2022-08-10T13:12:44.500Z,36.60
2022-08-10T13:15:44.864Z,36.40
2022-08-10T13:17:55.692Z,36.60
2022-08-10T13:20:34.202Z,36.30
2022-08-10T13:23:05.835Z,35.90
2022-08-10T13:25:37.623Z,35.90
2022-08-10T13:28:37.914Z,35.50
2022-08-10T13:31:05.222Z,35.40
2022-08-10T13:34:40.043Z,35.20
2022-08-10T13:36:29.196Z,35.20
2022-08-10T13:38:57.289Z,34.80
2022-08-10T13:41:35.079Z,34.20
2022-08-10T13:44:02.105Z,34.40
2022-08-10T13:46:29.565Z,33.60
2022-08-10T13:48:59.611Z,34.20
2022-08-10T13:51:54.185Z,33.70
2022-08-10T13:54:16.958Z,32.90
2022-08-10T13:56:47.262Z,33.00
2022-08-10T13:59:16.152Z,32.60
2022-08-10T14:01:50.151Z,33.30
2022-08-10T14:04:18.753Z,33.40
2022-08-10T14:06:55.108Z,33.60
2022-08-10T14:09:28.896Z,33.50
2022-08-10T14:11:57.583Z,33.50
2022-08-10T14:14:27.045Z,33.20
2022-08-10T14:16:55.352Z,33.50
2022-08-10T14:19:29.505Z,32.90
2022-08-10T14:21:56.920Z,33.00
2022-08-10T14:24:26.780Z,32.40
2022-08-10T14:27:06.843Z,32.30
2022-08-10T14:29:49.168Z,31.80
2022-08-10T14:32:19.992Z,31.70
2022-08-10T14:36:15.313Z,31.50
2022-08-10T14:37:44.641Z,32.30
2022-08-10T14:40:17.971Z,31.60
2022-08-10T14:42:45.873Z,31.10
2022-08-10T14:45:20.799Z,31.10
2022-08-10T14:47:53.536Z,31.00
2022-08-10T14:50:32.442Z,30.90
2022-08-10T14:53:13.949Z,31.40
2022-08-10T14:55:58.504Z,30.90
2022-08-10T14:58:34.499Z,31.10
2022-08-10T15:01:02.670Z,30.40
2022-08-10T15:03:59.516Z,30.60
2022-08-10T15:06:30.675Z,30.50
2022-08-10T15:09:19.215Z,30.40
2022-08-10T15:12:14.264Z,30.20
2022-08-10T15:14:43.580Z,30.20
2022-08-10T15:17:13.746Z,30.30
2022-08-10T15:20:02.712Z,30.30
2022-08-10T15:22:45.319Z,30.10
2022-08-10T15:25:18.815Z,30.00
2022-08-10T15:28:05.762Z,30.50
2022-08-10T15:30:45.227Z,30.50
2022-08-10T15:34:04.236Z,29.80
2022-08-10T15:37:02.198Z,29.60
2022-08-10T15:40:26.218Z,30.00
2022-08-10T15:43:01.884Z,30.10
2022-08-10T15:45:33.588Z,30.00
2022-08-10T15:48:04.488Z,30.10
2022-08-10T15:50:39.844Z,30.00
2022-08-10T15:53:49.082Z,29.90
2022-08-10T15:56:34.778Z,29.80
2022-08-10T15:59:26.229Z,29.90
2022-08-10T16:02:15.948Z,29.30
2022-08-10T16:04:51.862Z,29.60
2022-08-10T16:07:21.577Z,30.00
2022-08-10T16:10:24.091Z,29.80
2022-08-10T16:12:59.933Z,29.80
2022-08-10T16:15:29.008Z,30.00
2022-08-10T16:18:03.194Z,30.10
2022-08-10T16:20:32.116Z,30.00
2022-08-10T16:23:02.924Z,30.20
2022-08-10T16:25:48.571Z,30.10
2022-08-10T16:28:22.974Z,30.70
2022-08-10T16:30:53.796Z,30.60
2022-08-10T16:33:52.510Z,30.90
2022-08-10T16:36:16.510Z,30.90
2022-08-10T16:38:47.056Z,31.20
2022-08-10T16:42:00.283Z,31.30
2022-08-10T16:44:04.100Z,31.20
2022-08-10T16:46:32.997Z,32.00
2022-08-10T16:49:01.146Z,32.20
2022-08-10T16:51:28.415Z,33.10
2022-08-10T16:54:01.242Z,32.70
2022-08-10T16:56:35.276Z,33.00
2022-08-10T16:59:20.849Z,32.70
2022-08-10T17:01:53.704Z,32.90
2022-08-10T17:04:23.675Z,32.90
2022-08-10T17:06:57.514Z,32.80
2022-08-10T17:09:30.171Z,33.00
2022-08-10T17:11:58.981Z,32.90
2022-08-10T17:14:30.871Z,33.30
2022-08-10T17:17:04.347Z,33.60
2022-08-10T17:19:36.953Z,33.90
2022-08-10T17:22:10.432Z,33.90
2022-08-10T17:24:43.573Z,33.90
2022-08-10T17:28:05.448Z,34.00
2022-08-10T17:30:04.415Z,34.50
2022-08-10T17:32:44.324Z,34.60
2022-08-10T17:35:14.147Z,33.60
2022-08-10T17:37:51.402Z,33.60
2022-08-10T17:40:23.545Z,33.80
2022-08-10T17:42:51.875Z,33.80
2022-08-10T17:45:47.033Z,33.90
2022-08-10T17:48:17.352Z,34.10
2022-08-10T17:50:50.212Z,34.20
2022-08-10T17:53:21.337Z,34.40
2022-08-10T17:55:53.264Z,34.50
2022-08-10T17:58:21.625Z,34.30
2022-08-10T18:00:51.002Z,35.20
2022-08-10T18:03:25.853Z,34.40
2022-08-10T18:05:56.307Z,34.80
2022-08-10T18:08:27.915Z,35.10
2022-08-10T18:10:57.817Z,35.00
2022-08-10T18:13:27.478Z,35.20
2022-08-10T18:16:21.558Z,35.10
2022-08-10T18:18:50.300Z,35.10
2022-08-10T18:21:30.831Z,35.60
2022-08-10T18:24:19.986Z,36.00
2022-08-10T18:26:51.121Z,36.40
2022-08-10T18:29:24.126Z,36.60
2022-08-10T18:31:57.760Z,36.60
2022-08-10T18:34:25.615Z,36.70
2022-08-10T18:36:53.925Z,36.70
2022-08-10T18:39:27.820Z,36.90
2022-08-10T18:42:06.016Z,37.10
2022-08-10T18:44:40.007Z,37.40
2022-08-10T18:47:19.613Z,38.50
2022-08-10T18:49:58.887Z,39.40
2022-08-10T18:52:30.225Z,39.90
2022-08-10T18:55:14.266Z,40.20
2022-08-10T18:57:48.076Z,40.40
2022-08-10T19:05:04.626Z,41.30
2022-08-10T19:08:12.635Z,41.90
2022-08-10T19:11:10.029Z,42.50
2022-08-10T19:13:57.079Z,42.50
2022-08-10T19:16:48.806Z,42.70
2022-08-10T19:19:37.237Z,42.80
2022-08-10T19:22:41.149Z,43.20
2022-08-10T19:26:41.239Z,43.50
2022-08-10T19:28:51.715Z,43.90
2022-08-10T19:31:24.566Z,43.70
2022-08-10T19:34:48.649Z,43.80
2022-08-10T19:37:27.319Z,43.80
2022-08-10T19:40:18.477Z,44.10
2022-08-10T19:43:09.116Z,44.50
2022-08-10T19:46:00.751Z,44.70
2022-08-10T19:48:40.538Z,44.80
2022-08-10T19:51:16.373Z,45.40
2022-08-10T19:54:10.240Z,45.30
2022-08-10T19:56:58.087Z,45.90
2022-08-10T20:00:15.099Z,46.00
2022-08-10T20:02:36.184Z,46.10
2022-08-10T20:05:08.676Z,46.50
2022-08-10T20:07:58.140Z,46.60
2022-08-10T20:10:45.089Z,46.70
2022-08-10T20:13:11.686Z,47.10
2022-08-10T20:16:05.125Z,47.20
2022-08-10T20:19:11.853Z,47.10
2022-08-10T20:21:59.474Z,47.40
2022-08-10T20:24:49.106Z,47.60
2022-08-10T20:27:59.103Z,47.90
2022-08-10T20:30:19.087Z,48.30
2022-08-10T20:33:15.593Z,48.30
2022-08-10T20:36:10.313Z,48.70
2022-08-10T20:39:04.288Z,48.50
2022-08-10T20:41:49.921Z,48.90
2022-08-10T20:44:41.320Z,49.10
2022-08-10T20:47:23.500Z,49.00
2022-08-10T20:49:53.367Z,49.20
2022-08-10T20:52:24.680Z,49.40
2022-08-10T20:55:01.633Z,49.60
2022-08-10T20:58:08.148Z,49.70
2022-08-10T21:01:12.410Z,49.90
2022-08-10T21:04:30.866Z,50.00
2022-08-10T21:07:28.357Z,50.40
2022-08-10T21:10:40.925Z,50.60
2022-08-10T21:13:27.308Z,50.80
2022-08-10T21:16:26.914Z,50.70
2022-08-10T21:19:27.970Z,51.20
2022-08-10T21:22:12.440Z,51.10
2022-08-10T21:25:08.589Z,51.30
2022-08-10T21:27:58.218Z,51.40
2022-08-10T21:30:53.123Z,51.60
2022-08-10T21:33:44.940Z,51.80
2022-08-10T21:36:33.563Z,52.20
2022-08-10T21:42:53.974Z,52.40
2022-08-10T21:46:04.036Z,52.80
2022-08-10T21:49:09.638Z,52.90
2022-08-10T21:52:06.813Z,52.90
2022-08-10T21:55:09.472Z,52.90
2022-08-10T21:58:20.384Z,53.30
2022-08-10T22:01:15.280Z,53.50
2022-08-10T22:04:02.080Z,53.70
2022-08-10T22:06:52.658Z,53.70
2022-08-10T22:09:43.048Z,53.90
2022-08-10T22:12:32.457Z,54.10
2022-08-10T22:16:03.177Z,54.40
2022-08-10T22:18:53.826Z,54.70
2022-08-10T22:26:01.028Z,54.80
2022-08-10T22:28:48.700Z,55.30
2022-08-10T22:31:27.082Z,52.20
2022-08-10T22:31:27.864Z,54.60
2022-08-10T22:31:41.622Z,55.30
2022-08-10T22:34:45.631Z,55.60
2022-08-10T22:37:56.246Z,56.00
2022-08-10T22:40:43.128Z,56.00
2022-08-10T22:43:38.334Z,56.30
2022-08-10T22:46:33.883Z,56.70
2022-08-10T22:49:00.858Z,56.80
2022-08-10T22:51:39.789Z,57.10
2022-08-10T22:54:33.983Z,57.40
2022-08-10T22:57:21.600Z,57.60
2022-08-10T22:59:49.567Z,57.80
2022-08-10T23:02:37.885Z,58.10
2022-08-10T23:05:12.754Z,58.30
2022-08-10T23:07:49.360Z,58.50
2022-08-10T23:10:21.220Z,58.80
2022-08-10T23:13:09.826Z,58.60
2022-08-10T23:15:58.115Z,59.10
2022-08-10T23:18:53.166Z,59.20
2022-08-10T23:21:20.745Z,59.60
2022-08-10T23:23:49.879Z,60.00
2022-08-10T23:26:24.129Z,59.90
2022-08-10T23:29:05.221Z,60.20
2022-08-10T23:31:50.392Z,60.30
2022-08-10T23:34:32.741Z,60.50
2022-08-10T23:37:02.847Z,60.90
2022-08-10T23:39:37.346Z,61.20
2022-08-10T23:42:22.130Z,61.40
2022-08-10T23:45:01.261Z,61.80
2022-08-10T23:47:30.801Z,62.10
2022-08-10T23:49:58.693Z,62.40
2022-08-10T23:52:33.272Z,62.10
2022-08-10T23:55:05.137Z,62.80
2022-08-10T23:57:34.930Z,62.90
